Time;durP1;ratioP1;P1;durP2;ratioP2;P2;SDS_P1;SDS_P2;PMS_P1;PMS_P2;Temp;Humidity;BMP_temperature;BMP_pressure;BME280_temperature;BME280_humidity;BME280_pressure;Samples;Min_cycle;Max_cycle;Signal;HPM_P1;HPM_P2
2023/03/22 00:01:22;;;;;;;31.33;8.85;;;;;;;10.48;100.00;100690.31;4901803;29;20040;-82
2023/03/22 00:03:49;;;;;;;33.88;10.60;;;;;;;10.52;100.00;100697.28;4908967;29;20345;-83
2023/03/22 00:06:15;;;;;;;24.95;10.23;;;;;;;10.52;100.00;100690.94;4901314;29;20040;-84
2023/03/22 00:08:41;;;;;;;33.15;10.80;;;;;;;10.48;100.00;100687.59;4886752;29;20103;-84
2023/03/22 00:11:07;;;;;;;33.47;11.05;;;;;;;10.50;100.00;100684.72;4911013;29;20040;-83
2023/03/22 00:13:36;;;;;;;24.45;11.20;;;;;;;10.47;100.00;100688.56;4883194;29;20130;-84
2023/03/22 00:16:01;;;;;;;31.73;11.68;;;;;;;10.41;100.00;100679.00;4918405;29;20052;-83
2023/03/22 00:18:28;;;;;;;38.90;11.95;;;;;;;10.29;100.00;100658.06;4885937;29;20052;-81
2023/03/22 00:20:56;;;;;;;32.20;12.48;;;;;;;10.44;100.00;100677.88;4882449;29;20040;-82
2023/03/22 00:23:23;;;;;;;34.90;12.93;;;;;;;10.39;100.00;100672.75;4916474;29;20055;-82
2023/03/22 00:25:49;;;;;;;45.17;12.90;;;;;;;10.31;100.00;100667.00;4868384;29;20507;-83
2023/03/22 00:28:16;;;;;;;40.42;14.38;;;;;;;10.32;100.00;100666.06;4889513;29;20040;-83
2023/03/22 00:30:49;;;;;;;35.90;13.90;;;;;;;10.34;100.00;100668.66;4911529;29;20042;-82
2023/03/22 00:33:14;;;;;;;38.88;13.38;;;;;;;10.32;100.00;100663.31;4897926;29;20029;-83
2023/03/22 00:35:47;;;;;;;32.22;13.95;;;;;;;10.25;100.00;100651.97;4895392;29;20103;-83
2023/03/22 00:38:12;;;;;;;43.90;14.75;;;;;;;10.28;100.00;100651.72;4917674;29;20032;-83
2023/03/22 00:40:38;;;;;;;43.47;14.98;;;;;;;10.21;100.00;100653.19;4885835;29;20125;-83
2023/03/22 00:43:04;;;;;;;42.20;14.88;;;;;;;10.18;100.00;100652.59;4884620;29;20103;-82
2023/03/22 00:45:31;;;;;;;34.53;15.32;;;;;;;10.13;100.00;100650.22;4866787;29;20119;-84
2023/03/22 00:47:56;;;;;;;46.30;16.13;;;;;;;10.12;100.00;100641.16;4909501;29;20039;-83
2023/03/22 00:50:21;;;;;;;39.95;14.90;;;;;;;10.11;100.00;100633.06;4914073;29;20051;-83
2023/03/22 00:52:47;;;;;;;41.63;15.43;;;;;;;10.21;100.00;100636.78;4862715;29;20044;-84
2023/03/22 00:55:12;;;;;;;34.85;15.07;;;;;;;10.15;100.00;100629.09;4917242;29;20044;-84
2023/03/22 00:57:38;;;;;;;37.60;15.40;;;;;;;10.14;100.00;100629.22;4881466;29;20075;-84
2023/03/22 01:00:15;;;;;;;38.72;16.08;;;;;;;10.15;100.00;100620.00;4869687;29;20570;-83
2023/03/22 01:02:41;;;;;;;43.03;16.60;;;;;;;10.16;100.00;100619.00;4891630;29;20048;-84
2023/03/22 01:05:08;;;;;;;40.85;15.93;;;;;;;10.18;100.00;100620.63;4892476;29;20523;-84
2023/03/22 01:07:37;;;;;;;43.58;17.73;;;;;;;10.11;100.00;100612.03;4886578;29;20488;-85
2023/03/22 01:10:04;;;;;;;43.40;17.27;;;;;;;10.10;100.00;100606.69;4887775;29;20389;-84
2023/03/22 01:12:29;;;;;;;52.40;18.05;;;;;;;10.16;100.00;100606.19;4903454;29;20135;-84
2023/03/22 01:14:55;;;;;;;43.38;17.55;;;;;;;10.10;100.00;100599.38;4904724;29;20501;-84
2023/03/22 01:17:21;;;;;;;40.22;18.73;;;;;;;10.09;100.00;100607.72;4887687;29;20036;-84
2023/03/22 01:19:46;;;;;;;44.30;17.92;;;;;;;10.08;100.00;100604.09;4896770;29;20045;-84
2023/03/22 01:22:12;;;;;;;40.33;17.13;;;;;;;10.12;100.00;100602.00;4866610;29;20387;-84
2023/03/22 01:24:37;;;;;;;39.90;18.05;;;;;;;10.11;100.00;100589.28;4884180;29;20492;-84
2023/03/22 01:27:03;;;;;;;41.65;18.90;;;;;;;10.06;100.00;100591.53;4882890;29;20028;-81
2023/03/22 01:29:30;;;;;;;46.50;18.20;;;;;;;10.06;100.00;100586.94;4901480;29;20028;-81
2023/03/22 01:31:55;;;;;;;41.50;17.75;;;;;;;9.98;100.00;100586.69;4879780;29;20107;-82
2023/03/22 01:34:21;;;;;;;39.92;17.90;;;;;;;9.94;100.00;100564.19;4891308;29;20482;-83
2023/03/22 01:36:46;;;;;;;36.97;17.30;;;;;;;10.03;100.00;100567.16;4882505;29;20148;-83
2023/03/22 01:39:12;;;;;;;42.45;18.70;;;;;;;10.04;100.00;100561.56;4885445;29;20555;-83
2023/03/22 01:41:37;;;;;;;45.55;16.88;;;;;;;10.07;100.00;100555.00;4887923;29;20032;-83
2023/03/22 01:44:07;;;;;;;40.40;16.98;;;;;;;10.13;100.00;100549.00;4886494;29;20115;-83
2023/03/22 01:46:32;;;;;;;45.08;16.63;;;;;;;10.06;100.00;100540.44;4918457;29;20066;-83
2023/03/22 01:49:00;;;;;;;36.50;17.17;;;;;;;10.15;100.00;100543.41;4903237;29;20059;-82
2023/03/22 01:51:26;;;;;;;36.58;15.77;;;;;;;10.20;100.00;100538.41;4880965;29;20035;-83
2023/03/22 01:53:59;;;;;;;40.05;17.27;;;;;;;10.16;100.00;100540.53;4906246;29;20477;-82
2023/03/22 01:56:27;;;;;;;39.25;16.63;;;;;;;10.14;100.00;100530.72;4888773;29;20036;-84
2023/03/22 01:58:53;;;;;;;36.33;17.08;;;;;;;10.06;100.00;100520.41;4884068;29;20067;-82
2023/03/22 02:01:20;;;;;;;39.33;16.15;;;;;;;10.08;100.00;100523.88;4897929;29;20484;-83
2023/03/22 02:03:51;;;;;;;37.05;16.27;;;;;;;10.11;100.00;100523.63;4899868;29;20522;-84
2023/03/22 02:06:19;;;;;;;33.58;15.75;;;;;;;10.03;100.00;100516.06;4898681;29;20040;-83
2023/03/22 02:08:45;;;;;;;36.65;16.40;;;;;;;10.09;100.00;100518.28;4903247;29;20044;-83
2023/03/22 02:11:19;;;;;;;33.17;15.60;;;;;;;9.99;100.00;100500.06;4888642;29;20063;-84
2023/03/22 02:14:12;;;;;;;34.25;16.00;;;;;;;10.16;100.00;100506.84;4903750;29;20036;-84
2023/03/22 02:17:04;;;;;;;46.67;16.25;;;;;;;10.10;100.00;100506.38;4914125;29;20156;-83
2023/03/22 02:20:04;;;;;;;33.63;15.13;;;;;;;10.17;100.00;100494.91;4898591;29;20095;-83
2023/03/22 02:22:30;;;;;;;34.42;14.30;;;;;;;10.03;100.00;100493.31;4883596;29;20046;-83
2023/03/22 02:25:03;;;;;;;34.25;13.45;;;;;;;10.10;100.00;100486.31;4879837;29;20114;-84
2023/03/22 02:27:50;;;;;;;29.50;13.23;;;;;;;10.11;100.00;100485.34;4886116;29;20047;-79
2023/03/22 02:30:40;;;;;;;38.80;16.05;;;;;;;10.12;100.00;100479.75;4899581;29;20803;-84
2023/03/22 02:33:29;;;;;;;35.05;13.18;;;;;;;10.15;100.00;100485.94;4901503;29;20409;-84
2023/03/22 02:36:10;;;;;;;26.35;12.65;;;;;;;10.16;100.00;100490.44;4901851;29;20036;-83
2023/03/22 02:39:16;;;;;;;31.75;12.68;;;;;;;10.11;100.00;100488.06;4888020;29;20036;-83
2023/03/22 02:41:51;;;;;;;39.40;13.35;;;;;;;10.09;100.00;100480.00;4919080;29;20036;-82
2023/03/22 02:44:28;;;;;;;31.98;13.18;;;;;;;10.15;100.00;100489.56;4890174;29;20067;-84
2023/03/22 02:47:01;;;;;;;34.10;13.35;;;;;;;10.07;100.00;100476.53;4904215;29;20036;-80
2023/03/22 02:49:47;;;;;;;28.75;11.93;;;;;;;10.09;100.00;100479.13;4906750;29;20039;-83
2023/03/22 02:52:38;;;;;;;31.13;11.88;;;;;;;10.12;100.00;100481.63;4902193;29;20509;-83
2023/03/22 02:55:15;;;;;;;30.08;10.80;;;;;;;10.09;100.00;100474.53;4898872;29;20404;-83
2023/03/22 02:57:44;;;;;;;27.98;10.55;;;;;;;10.02;100.00;100473.31;4894048;29;20043;-82
2023/03/22 03:00:12;;;;;;;27.42;11.20;;;;;;;10.02;100.00;100472.41;4900904;29;20036;-83
2023/03/22 03:02:42;;;;;;;19.95;10.27;;;;;;;10.04;100.00;100478.66;4885352;29;20100;-83
2023/03/22 03:05:09;;;;;;;24.23;10.38;;;;;;;10.06;100.00;100471.19;4901732;29;20079;-83
2023/03/22 03:07:37;;;;;;;24.73;10.38;;;;;;;10.01;100.00;100482.50;4883931;29;20040;-82
2023/03/22 03:10:06;;;;;;;31.92;10.63;;;;;;;10.03;100.00;100475.03;4872128;29;20032;-83
2023/03/22 03:12:32;;;;;;;21.23;10.60;;;;;;;9.96;100.00;100473.81;4899821;29;20056;-82
2023/03/22 03:14:57;;;;;;;18.83;9.65;;;;;;;9.95;100.00;100463.84;4891405;29;20043;-82
2023/03/22 03:17:44;;;;;;;24.13;10.63;;;;;;;9.98;100.00;100470.94;4882168;29;20048;-82
2023/03/22 03:20:28;;;;;;;35.75;10.77;;;;;;;9.94;100.00;100467.59;4901852;29;20106;-81
2023/03/22 03:23:12;;;;;;;27.40;11.02;;;;;;;10.00;100.00;100469.84;4907526;29;20044;-82
2023/03/22 03:26:01;;;;;;;22.92;10.15;;;;;;;10.02;100.00;100461.47;4918708;29;20047;-82
2023/03/22 03:28:39;;;;;;;18.33;8.75;;;;;;;10.02;100.00;100462.38;4896711;29;20043;-83
2023/03/22 03:31:19;;;;;;;27.38;9.50;;;;;;;10.00;100.00;100456.16;4899071;29;20024;-79
2023/03/22 03:33:54;;;;;;;19.60;8.55;;;;;;;9.99;100.00;100457.16;4885405;29;20036;-82
2023/03/22 03:36:22;;;;;;;19.42;8.60;;;;;;;10.02;100.00;100456.00;4916207;29;20036;-83
2023/03/22 03:38:51;;;;;;;20.73;9.90;;;;;;;10.02;100.00;100451.44;4901456;29;20036;-82
2023/03/22 03:41:20;;;;;;;20.40;9.60;;;;;;;10.01;100.00;100448.81;4885662;29;20053;-82
2023/03/22 03:43:47;;;;;;;23.13;9.40;;;;;;;9.99;100.00;100448.94;4891218;29;20037;-82
2023/03/22 03:46:13;;;;;;;17.45;7.95;;;;;;;9.99;100.00;100448.09;4879522;29;20040;-82
2023/03/22 03:48:41;;;;;;;19.38;7.60;;;;;;;9.99;100.00;100451.69;4899810;29;20475;-82
2023/03/22 03:51:07;;;;;;;18.50;7.90;;;;;;;9.98;100.00;100449.06;4913429;29;20041;-82
2023/03/22 03:53:32;;;;;;;23.75;7.85;;;;;;;10.02;100.00;100445.06;4884171;29;20518;-82
2023/03/22 03:55:58;;;;;;;18.90;8.73;;;;;;;9.97;100.00;100447.31;4883154;29;20035;-83
2023/03/22 03:58:23;;;;;;;18.98;7.18;;;;;;;10.04;100.00;100459.50;4880223;29;20045;-83
2023/03/22 04:00:49;;;;;;;18.73;7.00;;;;;;;10.06;100.00;100452.03;4905581;29;20115;-83
2023/03/22 04:03:15;;;;;;;20.83;6.65;;;;;;;9.97;100.00;100436.38;4884787;29;20131;-83
2023/03/22 04:05:41;;;;;;;21.05;7.20;;;;;;;10.06;100.00;100452.03;4917598;29;20106;-83
2023/03/22 04:08:07;;;;;;;20.38;6.57;;;;;;;10.02;100.00;100454.16;4881458;29;20040;-82
2023/03/22 04:10:33;;;;;;;18.45;6.60;;;;;;;10.03;100.00;100457.75;4882610;29;20093;-82
2023/03/22 04:12:59;;;;;;;22.13;6.75;;;;;;;10.04;100.00;100454.91;4884147;29;21048;-82
2023/03/22 04:15:25;;;;;;;16.10;6.38;;;;;;;10.01;100.00;100455.16;4880715;29;20118;-83
2023/03/22 04:17:52;;;;;;;15.77;5.65;;;;;;;10.01;100.00;100463.34;4886125;29;20106;-83
2023/03/22 04:20:18;;;;;;;23.80;5.55;;;;;;;10.04;100.00;100464.97;4881304;29;20130;-82
2023/03/22 04:22:45;;;;;;;11.70;5.65;;;;;;;10.03;100.00;100446.81;4914946;29;20027;-82
2023/03/22 04:25:13;;;;;;;18.92;5.47;;;;;;;9.98;100.00;100449.94;4896262;29;20039;-82
2023/03/22 04:27:40;;;;;;;15.82;5.13;;;;;;;9.96;100.00;100451.94;4880014;29;20063;-82
2023/03/22 04:30:09;;;;;;;20.63;4.97;;;;;;;10.00;100.00;100439.75;4869307;29;20464;-82
2023/03/22 04:32:35;;;;;;;12.73;5.03;;;;;;;10.03;100.00;100447.69;4923172;29;20039;-84
2023/03/22 04:35:01;;;;;;;16.00;5.72;;;;;;;10.01;100.00;100438.75;4914950;29;20036;-84
2023/03/22 04:37:27;;;;;;;14.30;5.43;;;;;;;9.97;100.00;100442.75;4886218;29;20055;-83
2023/03/22 04:39:53;;;;;;;18.73;5.38;;;;;;;9.94;100.00;100441.13;4904959;29;20067;-83
2023/03/22 04:42:19;;;;;;;20.48;5.03;;;;;;;9.94;100.00;100445.72;4886090;29;20094;-84
2023/03/22 04:44:45;;;;;;;16.42;5.03;;;;;;;9.95;100.00;100439.25;4886155;29;20032;-84
2023/03/22 04:47:10;;;;;;;12.55;4.88;;;;;;;9.84;100.00;100428.31;4886226;29;20044;-82
2023/03/22 04:49:36;;;;;;;16.75;5.05;;;;;;;9.82;100.00;100428.47;4854193;29;20079;-83
2023/03/22 04:52:02;;;;;;;19.05;5.00;;;;;;;9.81;100.00;100425.88;4881146;29;20079;-82
2023/03/22 04:54:28;;;;;;;21.80;5.50;;;;;;;9.71;100.00;100429.34;4879300;29;20036;-83
2023/03/22 04:56:53;;;;;;;14.85;4.20;;;;;;;9.66;100.00;100425.28;4865802;29;20047;-82
2023/03/22 04:59:19;;;;;;;17.88;5.10;;;;;;;9.67;100.00;100437.94;4868552;29;20036;-82
2023/03/22 05:01:46;;;;;;;16.73;4.45;;;;;;;9.68;100.00;100435.06;4916505;29;20044;-83
2023/03/22 05:04:12;;;;;;;19.23;4.78;;;;;;;9.71;100.00;100423.03;4872046;29;20043;-82
2023/03/22 05:06:37;;;;;;;25.15;6.35;;;;;;;9.68;100.00;100420.53;4884000;29;20044;-83
2023/03/22 05:09:03;;;;;;;17.38;4.55;;;;;;;9.64;100.00;100428.13;4902266;29;20044;-81
2023/03/22 05:11:28;;;;;;;16.98;4.32;;;;;;;9.68;100.00;100429.59;4885161;29;20048;-81
2023/03/22 05:13:54;;;;;;;19.58;4.63;;;;;;;9.67;100.00;100432.47;4897724;29;20047;-81
2023/03/22 05:16:20;;;;;;;25.80;4.70;;;;;;;9.61;100.00;100420.19;4896654;29;20036;-82
2023/03/22 05:18:46;;;;;;;11.80;4.07;;;;;;;9.62;100.00;100427.38;4886573;29;20048;-82
2023/03/22 05:21:14;;;;;;;11.07;3.97;;;;;;;9.63;100.00;100423.66;4884084;29;20035;-81
2023/03/22 05:23:41;;;;;;;15.90;4.45;;;;;;;9.73;100.00;100431.97;4897820;29;20040;-80
2023/03/22 05:26:09;;;;;;;13.98;3.67;;;;;;;9.72;100.00;100422.03;5018864;23;20044;-80
2023/03/22 05:28:35;;;;;;;14.73;3.53;;;;;;;9.83;100.00;100434.81;4977840;23;20459;-81
2023/03/22 05:31:02;;;;;;;16.80;3.97;;;;;;;9.77;100.00;100427.09;4920962;29;20044;-82
2023/03/22 05:33:28;;;;;;;19.70;3.80;;;;;;;9.83;100.00;100432.94;4903404;29;20040;-81
2023/03/22 05:35:54;;;;;;;9.93;3.13;;;;;;;9.86;100.00;100431.81;4919295;29;20040;-80
2023/03/22 05:38:21;;;;;;;10.40;3.40;;;;;;;9.83;100.00;100418.41;4920119;29;20679;-80
2023/03/22 05:40:47;;;;;;;12.70;3.80;;;;;;;9.88;100.00;100417.00;4906828;29;20043;-83
2023/03/22 05:43:14;;;;;;;12.55;4.07;;;;;;;9.90;100.00;100425.97;4900899;29;20036;-82
2023/03/22 05:45:40;;;;;;;13.32;3.97;;;;;;;9.93;100.00;100419.38;4896011;29;20120;-81
2023/03/22 05:48:05;;;;;;;30.60;5.18;;;;;;;9.95;100.00;100428.31;4911329;29;20123;-81
2023/03/22 05:50:31;;;;;;;12.65;3.83;;;;;;;9.93;100.00;100427.56;4916275;29;20040;-80
2023/03/22 05:52:57;;;;;;;11.45;4.28;;;;;;;9.96;100.00;100423.72;4879297;29;20764;-80
2023/03/22 05:55:23;;;;;;;18.88;3.67;;;;;;;10.00;100.00;100416.97;4898805;29;20048;-81
2023/03/22 05:57:51;;;;;;;15.45;4.18;;;;;;;9.98;100.00;100414.38;4913389;29;20052;-81
2023/03/22 06:00:17;;;;;;;14.55;4.45;;;;;;;10.03;100.00;100417.59;4885483;29;20036;-81
2023/03/22 06:02:45;;;;;;;19.95;4.63;;;;;;;9.98;100.00;100410.78;4899107;29;20036;-81
2023/03/22 06:05:12;;;;;;;16.85;3.60;;;;;;;10.05;100.00;100417.47;4902176;29;20119;-81
2023/03/22 06:07:39;;;;;;;19.33;3.83;;;;;;;10.02;100.00;100412.25;4914083;29;20436;-80
2023/03/22 06:10:06;;;;;;;14.55;3.97;;;;;;;10.02;100.00;100410.41;4898424;29;20032;-81
2023/03/22 06:12:32;;;;;;;9.43;3.67;;;;;;;10.02;100.00;100412.25;4911317;29;20067;-81
2023/03/22 06:14:58;;;;;;;18.70;5.03;;;;;;;10.05;100.00;100418.34;4913951;29;20365;-81
2023/03/22 06:17:23;;;;;;;12.68;4.35;;;;;;;9.93;100.00;100398.34;4886393;29;20031;-79
2023/03/22 06:19:49;;;;;;;24.50;4.53;;;;;;;10.07;100.00;100416.34;4913759;29;20143;-81
2023/03/22 06:22:15;;;;;;;18.25;3.65;;;;;;;10.09;100.00;100414.34;4898771;29;20048;-81
2023/03/22 06:24:41;;;;;;;18.88;4.72;;;;;;;10.06;100.00;100414.59;4900939;29;20043;-81
2023/03/22 06:27:07;;;;;;;13.27;3.67;;;;;;;10.09;100.00;100413.50;4920828;29;20479;-82
2023/03/22 06:29:33;;;;;;;18.33;3.53;;;;;;;10.05;100.00;100410.16;4910897;29;20071;-81
2023/03/22 06:31:58;;;;;;;11.15;3.63;;;;;;;10.13;100.00;100423.16;4917435;29;20464;-82
2023/03/22 06:34:25;;;;;;;19.90;4.07;;;;;;;10.19;100.00;100417.16;4902870;29;20047;-81
2023/03/22 06:36:50;;;;;;;14.85;3.38;;;;;;;10.19;100.00;100413.56;4903211;29;20114;-84
2023/03/22 06:39:16;;;;;;;14.07;3.80;;;;;;;10.25;100.00;100416.66;4887880;29;20040;-84
2023/03/22 06:41:41;;;;;;;17.85;3.40;;;;;;;10.32;100.00;100422.50;4884145;29;20028;-84
2023/03/22 06:44:07;;;;;;;16.70;3.50;;;;;;;10.36;100.00;100415.75;4902245;29;20052;-84
2023/03/22 06:46:32;;;;;;;10.25;3.50;;;;;;;10.42;100.00;100415.25;4881443;29;20064;-84
2023/03/22 06:48:58;;;;;;;11.70;3.15;;;;;;;10.36;100.00;100409.44;4903494;29;20033;-84
2023/03/22 06:51:23;;;;;;;17.65;4.15;;;;;;;10.46;100.00;100416.72;4901307;29;20094;-83
2023/03/22 06:53:49;;;;;;;12.07;3.17;;;;;;;10.44;100.00;100420.59;4895332;29;20067;-83
2023/03/22 06:56:14;;;;;;;21.08;3.42;;;;;;;10.49;100.00;100415.56;4885232;29;20047;-83
2023/03/22 06:58:40;;;;;;;10.25;3.33;;;;;;;10.43;100.00;100418.88;4895122;29;20044;-81
2023/03/22 07:01:06;;;;;;;15.68;2.88;;;;;;;10.44;100.00;100412.38;4899447;29;20048;-81
2023/03/22 07:03:31;;;;;;;12.88;3.15;;;;;;;10.40;100.00;100417.25;4881190;29;20040;-81
2023/03/22 07:06:06;;;;;;;15.32;3.40;;;;;;;10.59;100.00;100423.88;4885333;29;20063;-81
2023/03/22 07:08:32;;;;;;;15.98;3.42;;;;;;;10.59;100.00;100418.41;4899037;29;20032;-80
2023/03/22 07:10:58;;;;;;;18.90;3.53;;;;;;;10.66;100.00;100422.34;4884009;29;20048;-79
2023/03/22 07:13:24;;;;;;;20.02;3.70;;;;;;;10.66;100.00;100428.69;4898079;29;20103;-80
2023/03/22 07:15:57;;;;;;;17.42;3.90;;;;;;;10.66;100.00;100419.63;4902440;29;20036;-81
2023/03/22 07:18:23;;;;;;;16.30;3.28;;;;;;;10.78;100.00;100421.28;4884352;29;20037;-80
2023/03/22 07:20:49;;;;;;;22.85;3.97;;;;;;;10.79;100.00;100427.59;4887792;29;20036;-80
2023/03/22 07:23:15;;;;;;;9.80;3.08;;;;;;;10.91;100.00;100429.28;4871184;29;20400;-79
2023/03/22 07:25:42;;;;;;;13.07;2.95;;;;;;;10.90;100.00;100427.53;4870304;29;20044;-80
2023/03/22 07:28:10;;;;;;;16.05;3.75;;;;;;;10.89;100.00;100428.56;4914302;29;20040;-82
2023/03/22 07:30:38;;;;;;;11.73;3.53;;;;;;;10.99;100.00;100428.63;4881618;29;20081;-81
2023/03/22 07:33:07;;;;;;;9.35;3.08;;;;;;;10.98;100.00;100426.88;4910735;29;20044;-82
2023/03/22 07:35:34;;;;;;;17.80;4.35;;;;;;;10.99;100.00;100417.66;4896130;29;20032;-83
2023/03/22 07:38:05;;;;;;;15.48;3.92;;;;;;;10.91;100.00;100401.03;4895084;29;20088;-83
2023/03/22 07:40:31;;;;;;;13.65;3.83;;;;;;;10.88;100.00;100401.31;4875367;29;20041;-83
2023/03/22 07:42:57;;;;;;;8.38;2.58;;;;;;;10.85;100.00;100403.31;4869989;29;20079;-82
2023/03/22 07:45:24;;;;;;;13.30;3.47;;;;;;;10.94;100.00;100407.13;4889919;29;20480;-84
2023/03/22 07:47:50;;;;;;;23.55;3.35;;;;;;;11.04;100.00;100415.38;4857780;29;20035;-84
2023/03/22 07:50:16;;;;;;;11.20;3.03;;;;;;;11.13;100.00;100408.22;4920429;29;20036;-84
2023/03/22 07:52:43;;;;;;;19.83;3.45;;;;;;;11.31;100.00;100427.63;4904611;29;20063;-85
2023/03/22 07:55:14;;;;;;;10.30;2.90;;;;;;;11.29;100.00;100430.50;4888352;29;20115;-85
2023/03/22 07:57:39;;;;;;;16.75;3.30;;;;;;;11.25;100.00;100429.06;4903113;29;20111;-85
2023/03/22 08:00:10;;;;;;;19.00;2.75;;;;;;;11.18;100.00;100422.38;4872392;29;20499;-85
2023/03/22 08:02:37;;;;;;;13.95;2.60;;;;;;;11.19;100.00;100418.63;4903473;29;20048;-84
2023/03/22 08:05:04;;;;;;;16.63;2.60;;;;;;;11.21;100.00;100413.88;4903079;29;20043;-85
2023/03/22 08:07:30;;;;;;;16.92;2.63;;;;;;;11.40;100.00;100426.81;4887331;29;20476;-85
2023/03/22 08:09:56;;;;;;;18.13;3.28;;;;;;;11.45;100.00;100423.66;4887476;29;20395;-85
2023/03/22 08:12:21;;;;;;;16.10;3.10;;;;;;;11.42;100.00;100408.34;4887005;29;20047;-84
2023/03/22 08:14:49;;;;;;;20.40;3.25;;;;;;;11.54;100.00;100415.50;4920071;29;20048;-85
2023/03/22 08:17:17;;;;;;;19.80;3.17;;;;;;;11.74;100.00;100407.28;4903672;29;20092;-85
2023/03/22 08:19:45;;;;;;;16.55;2.75;;;;;;;11.80;100.00;100414.97;4902633;29;20492;-85
2023/03/22 08:22:10;;;;;;;16.73;2.85;;;;;;;11.86;100.00;100421.78;4871770;29;20068;-86
2023/03/22 08:24:36;;;;;;;20.20;3.75;;;;;;;11.97;100.00;100423.56;4871381;29;20111;-85
2023/03/22 08:27:02;;;;;;;18.77;3.10;;;;;;;11.88;100.00;100423.34;4887061;29;20075;-85
2023/03/22 08:29:27;;;;;;;22.02;3.28;;;;;;;11.71;100.00;100407.59;4885161;29;20385;-84
2023/03/22 08:31:53;;;;;;;14.68;2.95;;;;;;;11.78;100.00;100436.19;4901515;29;20492;-83
2023/03/22 08:34:19;;;;;;;18.98;3.08;;;;;;;11.61;100.00;100432.25;4920870;29;20469;-84
2023/03/22 08:36:45;;;;;;;6.72;2.70;;;;;;;11.55;100.00;100433.66;4888472;29;20484;-84
2023/03/22 08:39:10;;;;;;;16.13;2.85;;;;;;;11.63;100.00;100437.59;4904517;29;20060;-85
2023/03/22 08:41:36;;;;;;;13.52;3.15;;;;;;;11.74;100.00;100442.94;4904236;29;20043;-85
2023/03/22 08:44:02;;;;;;;15.85;2.42;;;;;;;11.75;100.00;100444.69;4872107;29;20036;-86
2023/03/22 08:46:27;;;;;;;13.70;2.28;;;;;;;11.86;100.00;100436.34;4920567;29;20036;-85
2023/03/22 08:48:53;;;;;;;18.25;2.83;;;;;;;11.84;100.00;100424.66;4872544;29;20498;-85
2023/03/22 08:51:20;;;;;;;12.90;2.10;;;;;;;11.72;100.00;100429.41;4870235;29;20043;-86
2023/03/22 08:53:47;;;;;;;8.88;2.50;;;;;;;11.94;100.00;100427.47;4910126;29;20044;-85
2023/03/22 08:56:15;;;;;;;10.98;2.42;;;;;;;12.54;100.00;100427.34;4920965;29;20059;-86
2023/03/22 08:58:45;;;;;;;10.38;1.77;;;;;;;12.48;100.00;100428.81;4885306;29;20039;-87
2023/03/22 09:01:15;;;;;;;13.48;2.22;;;;;;;13.08;100.00;100407.63;4889469;29;20028;-86
2023/03/22 09:03:41;;;;;;;21.38;2.45;;;;;;;13.05;100.00;100420.66;4909495;29;20511;-86
2023/03/22 09:06:07;;;;;;;14.23;2.00;;;;;;;13.27;100.00;100424.06;4907058;29;20036;-87
2023/03/22 09:08:33;;;;;;;20.63;2.53;;;;;;;13.07;100.00;100426.00;4921502;29;20039;-85
2023/03/22 09:10:59;;;;;;;15.88;2.92;;;;;;;13.17;100.00;100417.72;4905908;29;20032;-84
2023/03/22 09:13:24;;;;;;;9.13;1.60;;;;;;;13.20;100.00;100417.44;4922412;29;20070;-86
2023/03/22 09:15:51;;;;;;;14.45;2.88;;;;;;;13.19;100.00;100418.44;4876625;29;20032;-86
2023/03/22 09:18:17;;;;;;;13.05;1.83;;;;;;;13.10;100.00;100417.47;4888774;29;20038;-86
2023/03/22 09:20:44;;;;;;;16.33;1.63;;;;;;;13.05;100.00;100417.03;4895866;29;20068;-85
2023/03/22 09:23:10;;;;;;;16.33;2.13;;;;;;;13.08;100.00;100408.47;4912025;29;20037;-85
2023/03/22 09:25:35;;;;;;;17.63;2.22;;;;;;;13.16;100.00;100418.75;4928429;29;20124;-86
2023/03/22 09:28:01;;;;;;;13.10;2.20;;;;;;;13.05;100.00;100386.78;4911370;29;20060;-85
2023/03/22 09:30:27;;;;;;;13.60;1.85;;;;;;;13.11;100.00;100397.19;4909926;29;20067;-86
2023/03/22 09:32:53;;;;;;;19.80;1.85;;;;;;;13.05;100.00;100398.66;4894000;29;20028;-84
2023/03/22 09:35:18;;;;;;;12.20;1.95;;;;;;;12.81;100.00;100399.16;4894523;29;20044;-86
2023/03/22 09:37:44;;;;;;;15.70;2.00;;;;;;;13.00;100.00;100400.13;4888739;29;20051;-85
2023/03/22 09:40:14;;;;;;;15.55;1.95;;;;;;;12.98;100.00;100407.66;4906911;29;20040;-84
2023/03/22 09:42:47;;;;;;;19.52;3.13;;;;;;;12.94;100.00;100398.84;4909168;29;20091;-85
2023/03/22 09:45:17;;;;;;;8.85;2.20;;;;;;;12.89;100.00;100392.94;4892062;29;20036;-86
2023/03/22 09:47:49;;;;;;;17.50;2.58;;;;;;;12.93;100.00;100396.22;4887384;29;20032;-85
2023/03/22 09:50:21;;;;;;;20.73;2.97;;;;;;;12.84;100.00;100398.84;4887772;29;20036;-85
2023/03/22 09:52:48;;;;;;;15.20;2.08;;;;;;;12.70;100.00;100399.31;4903208;29;20048;-85
2023/03/22 09:55:42;;;;;;;15.45;2.08;;;;;;;12.83;100.00;100394.38;4888641;29;20146;-85
2023/03/22 09:58:26;;;;;;;5.75;1.38;;;;;;;12.84;100.00;100389.75;4867104;29;20052;-85
2023/03/22 10:01:00;;;;;;;15.95;2.03;;;;;;;12.78;100.00;100395.84;4889967;29;20091;-85
2023/03/22 10:03:40;;;;;;;8.30;1.83;;;;;;;12.77;100.00;100394.94;4925298;29;20087;-85
2023/03/22 10:06:17;;;;;;;11.43;1.85;;;;;;;12.73;100.00;100399.03;4893342;29;20036;-85
2023/03/22 10:08:57;;;;;;;6.10;1.60;;;;;;;12.96;100.00;100385.81;4906806;29;20403;-86
2023/03/22 10:12:06;;;;;;;12.68;1.65;;;;;;;12.81;100.00;100404.66;4908856;29;20044;-85
2023/03/22 10:14:37;;;;;;;7.72;1.10;;;;;;;12.97;100.00;100392.16;4912678;29;20055;-85
2023/03/22 10:17:09;;;;;;;11.48;1.55;;;;;;;12.82;100.00;100402.75;4892604;29;20062;-85
2023/03/22 10:19:45;;;;;;;19.25;1.45;;;;;;;12.71;100.00;100378.19;4906878;29;20036;-85
2023/03/22 10:22:15;;;;;;;9.30;1.80;;;;;;;12.67;100.00;100399.59;4904837;29;20052;-86
2023/03/22 10:24:44;;;;;;;14.68;1.20;;;;;;;12.79;100.00;100405.78;4903096;29;20028;-85
2023/03/22 10:27:19;;;;;;;9.52;2.03;;;;;;;12.88;100.00;100382.94;4906802;29;20083;-84
2023/03/22 10:29:54;;;;;;;11.73;2.33;;;;;;;12.74;100.00;100383.41;4906242;29;20131;-85
2023/03/22 10:32:33;;;;;;;9.23;1.83;;;;;;;12.78;100.00;100390.34;4914675;29;20024;-85
2023/03/22 10:34:59;;;;;;;13.65;1.98;;;;;;;12.72;100.00;100386.28;4913279;29;20024;-85
2023/03/22 10:37:31;;;;;;;15.88;1.40;;;;;;;12.62;100.00;100375.31;4881626;29;20032;-85
2023/03/22 10:40:00;;;;;;;15.33;2.20;;;;;;;12.57;100.00;100377.63;4927075;29;20032;-84
2023/03/22 10:42:29;;;;;;;17.65;2.28;;;;;;;12.51;100.00;100386.47;4910536;29;20320;-84
2023/03/22 10:44:59;;;;;;;11.65;1.92;;;;;;;12.59;100.00;100370.13;4928018;29;20067;-85
2023/03/22 10:47:44;;;;;;;12.02;2.53;;;;;;;12.83;100.00;100382.53;4910922;29;20087;-85
2023/03/22 10:50:17;;;;;;;14.45;1.92;;;;;;;12.71;100.00;100380.94;4925743;29;20036;-83
2023/03/22 10:53:01;;;;;;;14.48;1.85;;;;;;;12.69;100.00;100387.47;4926122;29;20066;-85
2023/03/22 10:55:26;;;;;;;12.65;1.60;;;;;;;12.65;100.00;100376.91;4909612;29;20046;-85
2023/03/22 10:58:14;;;;;;;14.05;1.88;;;;;;;12.47;100.00;100379.53;4908387;29;20032;-85
2023/03/22 11:01:07;;;;;;;16.10;2.20;;;;;;;12.43;100.00;100387.19;4885653;29;20037;-85
2023/03/22 11:03:40;;;;;;;11.20;1.85;;;;;;;12.31;100.00;100394.72;4905066;29;20044;-85
2023/03/22 11:06:16;;;;;;;11.57;2.05;;;;;;;12.21;100.00;100391.09;4901845;29;20092;-81
2023/03/22 11:08:50;;;;;;;10.15;1.65;;;;;;;12.30;100.00;100392.13;4902135;29;20052;-85
2023/03/22 11:11:33;;;;;;;13.75;2.20;;;;;;;12.40;100.00;100389.38;4888567;29;20082;-85
2023/03/22 11:13:58;;;;;;;10.95;1.90;;;;;;;12.47;100.00;100394.13;4889519;29;20056;-85
2023/03/22 11:16:25;;;;;;;8.15;1.40;;;;;;;12.41;100.00;100393.84;4905605;29;20068;-86
2023/03/22 11:18:50;;;;;;;14.65;1.75;;;;;;;12.49;100.00;100380.25;4889812;29;20037;-85